createdAt,value
2017-02-19T00:00:28.676Z,0
2017-02-19T00:01:09.176Z,0
2017-02-19T00:01:49.680Z,0
2017-02-19T00:02:30.166Z,0
2017-02-19T00:03:10.675Z,0
2017-02-19T00:03:51.174Z,0
2017-02-19T00:04:31.675Z,0
2017-02-19T00:05:12.174Z,0
2017-02-19T00:05:52.673Z,0
2017-02-19T00:06:33.164Z,0
2017-02-19T00:07:13.676Z,0
2017-02-19T00:07:54.169Z,0
2017-02-19T00:08:34.674Z,0
2017-02-19T00:09:15.155Z,0
2017-02-19T00:09:55.655Z,0
2017-02-19T00:10:36.159Z,0
2017-02-19T00:11:16.653Z,0
2017-02-19T00:11:57.162Z,0
2017-02-19T00:12:37.642Z,0
2017-02-19T00:13:18.135Z,0
2017-02-19T00:13:58.633Z,0
2017-02-19T00:14:39.124Z,0
2017-02-19T00:15:19.618Z,0
2017-02-19T00:16:00.116Z,0
2017-02-19T00:16:40.605Z,0
2017-02-19T00:17:21.108Z,0
2017-02-19T00:18:01.612Z,0
2017-02-19T00:18:42.108Z,0
2017-02-19T00:19:22.613Z,0
2017-02-19T00:20:03.114Z,0
2017-02-19T00:20:43.600Z,0
2017-02-19T00:21:24.106Z,0
2017-02-19T00:22:04.611Z,0
2017-02-19T00:22:45.108Z,0
2017-02-19T00:23:25.596Z,0
2017-02-19T00:24:06.080Z,0
2017-02-19T00:24:46.564Z,0
2017-02-19T00:25:27.071Z,0
2017-02-19T00:26:07.563Z,0
2017-02-19T00:26:48.072Z,0
2017-02-19T00:27:28.564Z,0
2017-02-19T00:28:09.074Z,0
2017-02-19T00:28:49.559Z,0
2017-02-19T00:29:30.049Z,0
2017-02-19T00:30:10.548Z,0
2017-02-19T00:30:51.041Z,0
2017-02-19T00:31:31.546Z,0
2017-02-19T00:32:12.044Z,0
2017-02-19T00:32:52.546Z,0
2017-02-19T00:33:33.037Z,0
2017-02-19T00:34:13.551Z,0
2017-02-19T00:34:54.034Z,0
2017-02-19T00:35:34.523Z,0
2017-02-19T00:36:15.195Z,0
2017-02-19T00:36:55.686Z,0
2017-02-19T00:37:36.177Z,0
2017-02-19T00:38:16.685Z,0
2017-02-19T00:38:57.186Z,0
2017-02-19T00:39:37.678Z,0
2017-02-19T00:40:18.189Z,0
2017-02-19T00:40:58.678Z,0
2017-02-19T00:41:39.170Z,0
2017-02-19T00:42:19.682Z,0
2017-02-19T00:43:00.167Z,0
2017-02-19T00:43:40.660Z,0
2017-02-19T00:44:21.157Z,0
2017-02-19T00:45:01.648Z,0
2017-02-19T00:45:42.153Z,0
2017-02-19T00:46:22.666Z,0
2017-02-19T00:47:03.137Z,0
2017-02-19T00:47:43.638Z,0
2017-02-19T00:48:24.135Z,0
2017-02-19T00:49:04.624Z,0
2017-02-19T00:49:45.128Z,0
2017-02-19T00:50:25.634Z,0
2017-02-19T00:51:06.133Z,0
2017-02-19T00:51:46.631Z,0
2017-02-19T00:52:27.127Z,0
2017-02-19T00:53:07.632Z,0
2017-02-19T00:53:48.132Z,0
2017-02-19T00:54:28.632Z,0
2017-02-19T00:55:09.119Z,0
2017-02-19T00:55:49.608Z,0
2017-02-19T00:56:30.135Z,0
2017-02-19T00:57:10.637Z,0
2017-02-19T00:57:51.123Z,0
2017-02-19T00:58:31.628Z,0
2017-02-19T00:59:12.121Z,0
2017-02-19T00:59:52.625Z,0
2017-02-19T01:00:33.120Z,0
2017-02-19T01:01:13.625Z,0
2017-02-19T01:01:54.112Z,0
2017-02-19T01:02:34.615Z,0
2017-02-19T01:03:15.108Z,0
2017-02-19T01:03:55.596Z,0
2017-02-19T01:04:36.085Z,0
2017-02-19T01:05:16.586Z,0
2017-02-19T01:05:57.077Z,0
2017-02-19T01:06:37.591Z,0
2017-02-19T01:07:18.075Z,0
2017-02-19T01:07:58.579Z,0
2017-02-19T01:08:39.074Z,0
2017-02-19T01:09:19.591Z,0
2017-02-19T01:10:00.093Z,0
2017-02-19T01:10:40.580Z,0
2017-02-19T01:11:21.077Z,0
2017-02-19T01:12:01.580Z,0
2017-02-19T01:12:42.079Z,0
2017-02-19T01:13:22.579Z,0
2017-02-19T01:14:03.075Z,0
2017-02-19T01:14:43.622Z,0
2017-02-19T01:15:24.110Z,0
2017-02-19T01:16:04.614Z,0
2017-02-19T01:16:45.107Z,0
2017-02-19T01:17:25.607Z,0
2017-02-19T01:18:06.101Z,0
2017-02-19T01:18:46.598Z,0
2017-02-19T01:19:27.095Z,0
2017-02-19T01:20:07.597Z,0
2017-02-19T01:20:48.108Z,0
2017-02-19T01:21:28.603Z,0
2017-02-19T01:22:09.104Z,0
2017-02-19T01:22:49.598Z,0
2017-02-19T01:23:30.089Z,0
2017-02-19T01:24:10.593Z,0
2017-02-19T01:24:51.099Z,0
2017-02-19T01:25:31.593Z,0
2017-02-19T01:26:12.086Z,0
2017-02-19T01:26:52.598Z,0
2017-02-19T01:27:33.093Z,0
2017-02-19T01:28:13.605Z,0
2017-02-19T01:28:54.084Z,0
2017-02-19T01:29:34.594Z,0
2017-02-19T01:30:15.070Z,0
2017-02-19T01:30:55.559Z,0
2017-02-19T01:31:36.051Z,0
2017-02-19T01:32:16.556Z,0
2017-02-19T01:32:57.058Z,0
2017-02-19T01:33:37.581Z,0
2017-02-19T01:34:18.044Z,0
2017-02-19T01:34:58.535Z,0
2017-02-19T01:35:39.039Z,0
2017-02-19T01:36:19.533Z,0
2017-02-19T01:37:00.041Z,0
2017-02-19T01:37:40.533Z,0
2017-02-19T01:38:21.035Z,0
2017-02-19T01:39:01.532Z,0
2017-02-19T01:39:42.035Z,0
2017-02-19T01:40:22.526Z,0
2017-02-19T01:41:03.034Z,0
2017-02-19T01:41:43.519Z,0
2017-02-19T01:42:24.013Z,0
2017-02-19T01:43:04.518Z,0
2017-02-19T01:43:45.010Z,0
2017-02-19T01:44:25.509Z,0
2017-02-19T01:45:05.995Z,0
2017-02-19T01:45:46.485Z,0
2017-02-19T01:46:26.981Z,0
2017-02-19T01:47:07.477Z,0
2017-02-19T01:47:47.971Z,0
2017-02-19T01:48:28.480Z,0
2017-02-19T01:49:08.968Z,0
2017-02-19T01:49:49.470Z,0
2017-02-19T01:50:29.958Z,0
2017-02-19T01:51:10.448Z,0
2017-02-19T01:51:50.947Z,0
2017-02-19T01:52:31.441Z,0
2017-02-19T01:53:11.934Z,0
2017-02-19T01:53:52.434Z,0
2017-02-19T01:54:32.931Z,0
2017-02-19T01:55:13.432Z,0
2017-02-19T01:55:53.928Z,0
2017-02-19T01:56:34.431Z,0
2017-02-19T01:57:14.925Z,0
2017-02-19T01:57:55.421Z,0
2017-02-19T01:58:35.914Z,0
2017-02-19T01:59:16.402Z,0
2017-02-19T01:59:56.910Z,0
2017-02-19T02:00:37.397Z,0
2017-02-19T02:01:17.906Z,0
2017-02-19T02:01:58.401Z,0
2017-02-19T02:02:38.919Z,0
2017-02-19T02:03:19.414Z,0
2017-02-19T02:03:59.906Z,0
2017-02-19T02:04:40.411Z,0
2017-02-19T02:05:20.909Z,0
2017-02-19T02:06:01.408Z,0
2017-02-19T02:06:41.907Z,0
2017-02-19T02:07:22.397Z,0
2017-02-19T02:08:02.907Z,0
2017-02-19T02:08:43.406Z,0
2017-02-19T02:09:23.905Z,0
2017-02-19T02:10:04.390Z,0
2017-02-19T02:10:44.978Z,0
2017-02-19T02:11:25.468Z,0
2017-02-19T02:12:05.975Z,0
2017-02-19T02:12:46.463Z,0
2017-02-19T02:13:26.957Z,0
2017-02-19T02:14:07.455Z,0
2017-02-19T02:14:47.939Z,0
2017-02-19T02:15:28.427Z,0
2017-02-19T02:16:08.919Z,0
2017-02-19T02:16:49.413Z,0
2017-02-19T02:17:29.928Z,0
2017-02-19T02:18:10.416Z,0
2017-02-19T02:18:50.910Z,0
2017-02-19T02:19:31.408Z,0
2017-02-19T02:20:11.900Z,0
2017-02-19T02:20:52.407Z,0
2017-02-19T02:21:32.903Z,0
2017-02-19T02:22:13.412Z,0
2017-02-19T02:22:53.916Z,0
2017-02-19T02:23:34.409Z,0
2017-02-19T02:24:14.897Z,0
2017-02-19T02:24:55.392Z,0
2017-02-19T02:25:35.892Z,0
2017-02-19T02:26:16.377Z,0
2017-02-19T02:26:56.884Z,0
2017-02-19T02:27:37.385Z,0
2017-02-19T02:28:17.890Z,0
2017-02-19T02:28:58.387Z,0
2017-02-19T02:29:38.870Z,0
2017-02-19T02:30:19.371Z,0
2017-02-19T02:30:59.875Z,0
2017-02-19T02:31:40.374Z,0
2017-02-19T02:32:20.860Z,0
2017-02-19T02:33:01.360Z,0
2017-02-19T02:33:41.849Z,0
2017-02-19T02:34:22.336Z,0
2017-02-19T02:35:02.829Z,0
2017-02-19T02:35:43.326Z,0
2017-02-19T02:36:23.825Z,0
2017-02-19T02:37:04.326Z,0
2017-02-19T02:37:44.830Z,0
2017-02-19T02:38:25.322Z,0
2017-02-19T02:39:05.817Z,0
2017-02-19T02:39:46.304Z,0
2017-02-19T02:40:26.801Z,0
2017-02-19T02:41:07.289Z,0
2017-02-19T02:41:47.777Z,0
2017-02-19T02:42:28.273Z,0
2017-02-19T02:43:08.772Z,0
2017-02-19T02:43:49.265Z,0
2017-02-19T02:44:29.771Z,0
2017-02-19T02:45:10.263Z,0
2017-02-19T02:45:50.767Z,0
2017-02-19T02:46:31.255Z,0
2017-02-19T02:47:11.765Z,0
2017-02-19T02:47:52.263Z,0
2017-02-19T02:48:32.764Z,0
2017-02-19T02:49:13.261Z,0
2017-02-19T02:49:53.765Z,0
2017-02-19T02:50:34.265Z,0
2017-02-19T02:51:14.763Z,0
2017-02-19T02:51:55.248Z,0
2017-02-19T02:52:35.746Z,0
2017-02-19T02:53:16.261Z,0
2017-02-19T02:53:56.761Z,0
2017-02-19T02:54:37.241Z,0
2017-02-19T02:55:17.737Z,0
2017-02-19T02:55:58.232Z,0
2017-02-19T02:56:38.721Z,0
2017-02-19T02:57:19.208Z,0
2017-02-19T02:57:59.707Z,0
2017-02-19T02:58:40.201Z,0
2017-02-19T02:59:20.700Z,0
2017-02-19T03:00:01.208Z,0
2017-02-19T03:00:41.696Z,0
2017-02-19T03:01:22.250Z,0
2017-02-19T03:02:02.755Z,0
2017-02-19T03:02:43.251Z,0
2017-02-19T03:04:56.048Z,0
2017-02-19T03:05:36.528Z,0
2017-02-19T03:06:17.027Z,0
2017-02-19T03:06:57.517Z,0
2017-02-19T03:07:38.007Z,0
2017-02-19T03:08:18.501Z,0
2017-02-19T03:08:59.007Z,0
2017-02-19T03:09:39.511Z,0
2017-02-19T03:10:20.008Z,0
2017-02-19T03:11:00.504Z,0
2017-02-19T03:11:41.009Z,0
2017-02-19T03:12:21.494Z,0
2017-02-19T03:13:01.984Z,0
2017-02-19T03:13:42.462Z,0
2017-02-19T03:14:22.959Z,0
2017-02-19T03:15:03.451Z,0
2017-02-19T03:15:43.943Z,0
2017-02-19T03:16:24.527Z,0
2017-02-19T03:17:05.042Z,0
2017-02-19T03:17:45.533Z,0
2017-02-19T03:18:26.021Z,0
2017-02-19T03:19:06.511Z,0
2017-02-19T03:19:47.002Z,0
2017-02-19T03:20:27.488Z,0
2017-02-19T03:21:08.920Z,0
2017-02-19T03:21:48.456Z,0
2017-02-19T03:22:28.947Z,0
2017-02-19T03:23:09.442Z,0
2017-02-19T03:23:49.935Z,0
2017-02-19T03:24:30.439Z,0
2017-02-19T03:25:10.943Z,0
2017-02-19T03:25:51.451Z,0
2017-02-19T03:26:31.945Z,0
2017-02-19T03:27:12.440Z,0
2017-02-19T03:27:52.929Z,0
2017-02-19T03:28:33.416Z,0
2017-02-19T03:29:13.906Z,0
2017-02-19T03:29:54.409Z,0
2017-02-19T03:30:34.900Z,0
2017-02-19T03:31:15.391Z,0
2017-02-19T03:31:55.885Z,0
2017-02-19T03:32:36.371Z,0
2017-02-19T03:33:16.857Z,0
2017-02-19T03:33:57.343Z,0
2017-02-19T03:34:37.835Z,0
2017-02-19T03:35:18.337Z,0
2017-02-19T03:35:58.818Z,0
2017-02-19T03:36:39.312Z,0
2017-02-19T03:37:19.817Z,0
2017-02-19T03:38:00.326Z,0
2017-02-19T03:38:40.816Z,0
2017-02-19T03:39:21.312Z,0
2017-02-19T03:40:01.819Z,0
2017-02-19T03:40:42.306Z,0
2017-02-19T03:41:22.804Z,0
2017-02-19T03:42:03.296Z,0
2017-02-19T03:42:43.775Z,0
2017-02-19T03:43:24.261Z,0
2017-02-19T03:44:04.755Z,0
2017-02-19T03:44:45.268Z,0
2017-02-19T03:45:25.771Z,0
2017-02-19T03:46:06.259Z,0
2017-02-19T03:46:46.749Z,0
2017-02-19T03:47:27.232Z,0
2017-02-19T03:48:07.743Z,0
2017-02-19T03:48:48.234Z,0
2017-02-19T03:49:28.733Z,0
2017-02-19T03:50:09.321Z,0
2017-02-19T03:50:49.809Z,0
2017-02-19T03:51:30.294Z,0
2017-02-19T03:52:10.776Z,0
2017-02-19T03:52:51.267Z,0
2017-02-19T03:53:31.764Z,0
2017-02-19T03:54:12.253Z,0
2017-02-19T03:54:52.742Z,0
2017-02-19T03:55:33.238Z,0
2017-02-19T03:56:13.730Z,0
2017-02-19T03:56:54.219Z,0
2017-02-19T03:57:34.730Z,0
2017-02-19T03:58:15.227Z,0
2017-02-19T03:58:55.737Z,0
2017-02-19T03:59:36.230Z,0
2017-02-19T04:00:16.722Z,0
2017-02-19T04:00:57.210Z,0
2017-02-19T04:01:37.694Z,0
2017-02-19T04:02:18.184Z,0
2017-02-19T04:02:58.665Z,0
2017-02-19T04:03:39.155Z,0
2017-02-19T04:04:19.652Z,0
2017-02-19T04:05:00.140Z,0
2017-02-19T04:05:40.629Z,0
2017-02-19T04:06:21.125Z,0
2017-02-19T04:07:01.708Z,0
2017-02-19T04:07:42.179Z,0
2017-02-19T04:08:22.679Z,0
2017-02-19T04:09:03.165Z,0
2017-02-19T04:09:43.651Z,0
2017-02-19T04:10:24.147Z,0
2017-02-19T04:11:04.651Z,0
2017-02-19T04:11:45.134Z,0
2017-02-19T04:12:25.625Z,0
2017-02-19T04:13:06.117Z,0
2017-02-19T04:13:46.609Z,0
2017-02-19T04:14:27.098Z,0
2017-02-19T04:15:07.575Z,0
2017-02-19T04:15:48.090Z,0
2017-02-19T04:16:28.580Z,0
2017-02-19T04:17:09.070Z,0
2017-02-19T04:17:49.567Z,0
2017-02-19T04:18:30.058Z,0
2017-02-19T04:19:10.543Z,0
2017-02-19T04:19:51.043Z,0
2017-02-19T04:20:31.535Z,0
2017-02-19T04:21:12.034Z,0
2017-02-19T04:21:52.536Z,0
2017-02-19T04:22:33.020Z,0
2017-02-19T04:23:13.530Z,0
2017-02-19T04:23:54.041Z,0
2017-02-19T04:24:34.533Z,0
2017-02-19T04:25:15.034Z,0
2017-02-19T04:25:55.530Z,0
2017-02-19T04:26:36.020Z,0
2017-02-19T04:27:16.509Z,0
2017-02-19T04:27:57.013Z,0
2017-02-19T04:28:37.499Z,0
2017-02-19T04:29:17.984Z,0
2017-02-19T04:29:58.469Z,0
2017-02-19T04:30:38.954Z,0
2017-02-19T04:31:19.447Z,0
2017-02-19T04:31:59.939Z,0
2017-02-19T04:32:40.428Z,0
2017-02-19T04:33:20.922Z,0
2017-02-19T04:34:01.419Z,0
2017-02-19T04:34:41.907Z,0
2017-02-19T04:35:22.417Z,0
2017-02-19T04:36:02.907Z,0
2017-02-19T04:36:43.399Z,0
2017-02-19T04:37:23.911Z,0
2017-02-19T04:38:04.395Z,0
2017-02-19T04:38:44.887Z,0
2017-02-19T04:39:25.389Z,0
2017-02-19T04:40:05.892Z,0
2017-02-19T04:40:46.365Z,0
2017-02-19T04:41:26.867Z,0
2017-02-19T04:42:07.350Z,0
2017-02-19T04:42:47.842Z,0
2017-02-19T04:43:28.327Z,0
2017-02-19T04:44:08.823Z,0
2017-02-19T04:44:49.384Z,0
2017-02-19T04:45:29.870Z,0
2017-02-19T04:46:10.363Z,0
2017-02-19T04:46:50.856Z,0
2017-02-19T04:47:31.345Z,0
2017-02-19T04:48:11.859Z,0
2017-02-19T04:48:52.383Z,0
2017-02-19T04:49:32.871Z,0
2017-02-19T04:50:13.356Z,0
2017-02-19T04:50:53.851Z,0
2017-02-19T04:51:34.340Z,0
2017-02-19T04:52:14.834Z,0
2017-02-19T04:52:55.309Z,0
2017-02-19T04:53:35.815Z,0
2017-02-19T04:54:16.303Z,0
2017-02-19T04:54:56.803Z,0
2017-02-19T04:55:37.298Z,0
2017-02-19T04:56:17.784Z,0
2017-02-19T04:56:58.274Z,0
2017-02-19T04:57:38.765Z,0
2017-02-19T04:58:19.309Z,0
2017-02-19T04:58:59.810Z,0
2017-02-19T04:59:40.297Z,0
2017-02-19T05:00:20.785Z,0
2017-02-19T05:01:01.274Z,0
2017-02-19T05:01:41.769Z,0
2017-02-19T05:02:22.258Z,0
2017-02-19T05:03:02.747Z,0
2017-02-19T05:03:43.241Z,0
2017-02-19T05:04:23.740Z,0
2017-02-19T05:05:04.225Z,0
2017-02-19T05:05:44.714Z,0
2017-02-19T05:06:25.195Z,0
2017-02-19T05:07:05.706Z,0
2017-02-19T05:07:46.191Z,0
2017-02-19T05:08:26.686Z,0
2017-02-19T05:09:07.186Z,0
2017-02-19T05:09:47.668Z,0
2017-02-19T05:10:28.157Z,0
2017-02-19T05:11:08.655Z,0
2017-02-19T05:11:49.145Z,0
2017-02-19T05:12:29.631Z,0
2017-02-19T05:13:10.129Z,0
2017-02-19T05:13:50.626Z,0
2017-02-19T05:14:31.114Z,0
2017-02-19T05:15:11.610Z,0
2017-02-19T05:15:52.110Z,0
2017-02-19T05:16:32.590Z,0
2017-02-19T05:17:13.081Z,0
2017-02-19T05:17:53.574Z,0
2017-02-19T05:18:34.072Z,0
2017-02-19T05:19:14.558Z,0
2017-02-19T05:19:55.069Z,0
2017-02-19T05:20:35.564Z,0
2017-02-19T05:21:16.068Z,0
2017-02-19T05:21:56.559Z,0
2017-02-19T05:22:37.064Z,0
2017-02-19T05:23:17.558Z,0
2017-02-19T05:23:58.052Z,0
2017-02-19T05:24:38.560Z,0
2017-02-19T05:25:19.065Z,0
2017-02-19T05:25:59.559Z,0
2017-02-19T05:26:40.063Z,0
2017-02-19T05:27:20.558Z,0
2017-02-19T05:28:01.068Z,0
2017-02-19T05:28:41.562Z,0
2017-02-19T05:29:22.062Z,0
2017-02-19T05:30:02.551Z,0
2017-02-19T05:30:43.043Z,0
2017-02-19T05:31:23.545Z,0
2017-02-19T05:32:04.036Z,0
2017-02-19T05:32:44.535Z,0
2017-02-19T05:33:25.024Z,0
2017-02-19T05:34:05.512Z,0
2017-02-19T05:34:45.994Z,0
2017-02-19T05:35:26.480Z,0
2017-02-19T05:36:06.969Z,0
2017-02-19T05:36:47.471Z,0
2017-02-19T05:37:27.958Z,0
2017-02-19T05:38:08.437Z,0
2017-02-19T05:38:48.926Z,0
2017-02-19T05:39:29.414Z,0
2017-02-19T05:40:09.913Z,0
2017-02-19T05:40:50.399Z,0
2017-02-19T05:41:30.896Z,0
2017-02-19T05:42:11.398Z,0
2017-02-19T05:42:51.882Z,0
2017-02-19T05:43:32.376Z,0
2017-02-19T05:44:12.875Z,0
2017-02-19T05:44:53.361Z,0
2017-02-19T05:45:33.848Z,0
2017-02-19T05:46:14.343Z,0
2017-02-19T05:46:54.841Z,0
2017-02-19T05:47:35.328Z,0
2017-02-19T05:48:15.842Z,0
2017-02-19T05:48:56.326Z,0
2017-02-19T05:49:36.821Z,0
2017-02-19T05:50:17.328Z,0
2017-02-19T05:50:57.841Z,0
2017-02-19T05:51:38.341Z,0
2017-02-19T05:52:18.848Z,0
2017-02-19T05:52:59.320Z,0
2017-02-19T05:53:39.813Z,0
2017-02-19T05:54:20.297Z,0
2017-02-19T05:55:00.797Z,0
2017-02-19T05:55:41.306Z,0
2017-02-19T05:56:21.771Z,0
2017-02-19T05:57:02.274Z,0
2017-02-19T05:57:42.771Z,0
2017-02-19T05:58:23.283Z,0
2017-02-19T05:59:03.770Z,0
2017-02-19T05:59:44.257Z,0
2017-02-19T06:00:24.762Z,0
2017-02-19T06:01:05.258Z,0
2017-02-19T06:01:45.774Z,0
2017-02-19T06:02:26.278Z,0
2017-02-19T06:03:06.762Z,0
2017-02-19T06:03:47.272Z,0
2017-02-19T06:04:27.770Z,0
2017-02-19T06:05:08.271Z,0
2017-02-19T06:05:48.765Z,0
2017-02-19T06:06:29.276Z,4
2017-02-19T06:07:09.768Z,4
2017-02-19T06:07:50.265Z,4
2017-02-19T06:08:30.754Z,4
2017-02-19T06:09:11.275Z,4
2017-02-19T06:09:51.767Z,8
2017-02-19T06:10:32.266Z,4
2017-02-19T06:11:12.751Z,4
2017-02-19T06:11:53.263Z,8
2017-02-19T06:12:33.762Z,8
2017-02-19T06:13:14.245Z,8
2017-02-19T06:13:54.758Z,8
2017-02-19T06:14:35.249Z,12
2017-02-19T06:15:15.753Z,8
2017-02-19T06:15:56.239Z,12
2017-02-19T06:16:36.721Z,12
2017-02-19T06:17:17.217Z,12
2017-02-19T06:17:57.712Z,16
2017-02-19T06:18:38.204Z,16
2017-02-19T06:19:18.686Z,20
2017-02-19T06:19:59.172Z,16
2017-02-19T06:20:39.683Z,20
2017-02-19T06:21:20.158Z,24
2017-02-19T06:22:00.647Z,24
2017-02-19T06:22:41.158Z,28
2017-02-19T06:23:21.646Z,28
2017-02-19T06:24:02.130Z,32
2017-02-19T06:24:42.624Z,32
2017-02-19T06:25:23.117Z,36
2017-02-19T06:26:03.610Z,36
2017-02-19T06:26:44.129Z,40
2017-02-19T06:27:24.626Z,40
2017-02-19T06:28:05.113Z,44
2017-02-19T06:28:45.605Z,44
2017-02-19T06:29:26.104Z,48
2017-02-19T06:30:06.616Z,48
2017-02-19T06:30:47.115Z,52
2017-02-19T06:31:27.600Z,52
2017-02-19T06:32:08.089Z,52
2017-02-19T06:32:48.591Z,56
2017-02-19T06:33:29.081Z,60
2017-02-19T06:34:09.571Z,60
2017-02-19T06:34:50.067Z,56
2017-02-19T06:35:30.563Z,60
2017-02-19T06:36:11.047Z,60
2017-02-19T06:36:51.545Z,64
2017-02-19T06:37:32.037Z,64
2017-02-19T06:38:12.531Z,64
2017-02-19T06:38:53.042Z,64
2017-02-19T06:39:33.529Z,68
2017-02-19T06:40:14.016Z,68
2017-02-19T06:40:54.501Z,72
2017-02-19T06:41:35.002Z,72
2017-02-19T06:42:15.490Z,72
2017-02-19T06:42:55.984Z,76
2017-02-19T06:43:36.479Z,76
2017-02-19T06:44:16.961Z,80
2017-02-19T06:44:57.453Z,80
2017-02-19T06:45:37.938Z,84
2017-02-19T06:46:18.443Z,84
2017-02-19T06:46:58.934Z,88
2017-02-19T06:47:39.430Z,92
2017-02-19T06:48:19.927Z,96
2017-02-19T06:49:00.429Z,104
2017-02-19T06:49:40.922Z,108
2017-02-19T06:50:21.415Z,116
2017-02-19T06:51:01.920Z,120
2017-02-19T06:51:42.410Z,128
2017-02-19T06:52:22.921Z,132
2017-02-19T06:53:03.402Z,140
2017-02-19T06:53:43.886Z,144
2017-02-19T06:54:24.373Z,144
2017-02-19T06:55:04.871Z,152
2017-02-19T06:55:45.373Z,152
2017-02-19T06:56:25.866Z,160
2017-02-19T06:57:06.368Z,168
2017-02-19T06:57:46.860Z,176
2017-02-19T06:58:27.363Z,188
2017-02-19T06:59:07.858Z,196
2017-02-19T06:59:48.367Z,208
2017-02-19T07:00:28.853Z,216
2017-02-19T07:01:09.339Z,224
2017-02-19T07:01:49.829Z,236
2017-02-19T07:02:30.322Z,248
2017-02-19T07:03:10.823Z,256
2017-02-19T07:03:51.332Z,276
2017-02-19T07:04:31.833Z,292
2017-02-19T07:05:12.346Z,304
2017-02-19T07:05:52.817Z,320
2017-02-19T07:06:33.334Z,332
2017-02-19T07:07:13.828Z,348
2017-02-19T07:07:54.325Z,360
2017-02-19T07:08:34.809Z,372
2017-02-19T07:09:15.304Z,388
2017-02-19T07:09:55.802Z,404
2017-02-19T07:10:36.297Z,420
2017-02-19T07:11:16.806Z,440
2017-02-19T07:11:57.300Z,476
2017-02-19T07:12:37.805Z,504
2017-02-19T07:13:18.296Z,528
2017-02-19T07:13:58.805Z,560
2017-02-19T07:14:39.288Z,608
2017-02-19T07:15:19.795Z,644
2017-02-19T07:16:00.289Z,688
2017-02-19T07:16:40.779Z,720
2017-02-19T07:17:21.269Z,740
2017-02-19T07:18:01.908Z,752
2017-02-19T07:18:42.411Z,764
2017-02-19T07:19:22.901Z,784
2017-02-19T07:20:03.398Z,804
2017-02-19T07:20:43.899Z,808
2017-02-19T07:21:24.384Z,828
2017-02-19T07:22:04.870Z,824
2017-02-19T07:22:45.374Z,812
2017-02-19T07:23:25.857Z,820
2017-02-19T07:24:06.348Z,844
2017-02-19T07:24:46.844Z,872
2017-02-19T07:25:27.336Z,892
2017-02-19T07:26:07.839Z,900
2017-02-19T07:26:48.338Z,896
2017-02-19T07:27:28.828Z,892
2017-02-19T07:28:09.316Z,904
2017-02-19T07:28:49.815Z,920
2017-02-19T07:29:30.305Z,932
2017-02-19T07:30:10.797Z,940
2017-02-19T07:30:51.305Z,956
2017-02-19T07:31:31.800Z,968
2017-02-19T07:32:12.296Z,976
2017-02-19T07:32:52.787Z,1000
2017-02-19T07:33:33.283Z,1004
2017-02-19T07:34:13.778Z,1000
2017-02-19T07:34:54.339Z,992
2017-02-19T07:35:34.834Z,1000
2017-02-19T07:36:15.329Z,988
2017-02-19T07:36:55.831Z,1000
2017-02-19T07:37:36.326Z,1012
2017-02-19T07:38:16.819Z,1000
2017-02-19T07:38:57.334Z,992
2017-02-19T07:39:37.821Z,980
2017-02-19T07:40:18.324Z,964
2017-02-19T07:40:58.819Z,952
2017-02-19T07:41:39.330Z,932
2017-02-19T07:42:19.815Z,916
2017-02-19T07:43:00.326Z,896
2017-02-19T07:43:40.813Z,904
2017-02-19T07:44:21.300Z,908
2017-02-19T07:45:01.780Z,904
2017-02-19T07:45:42.274Z,908
2017-02-19T07:46:22.771Z,912
2017-02-19T07:47:03.261Z,908
2017-02-19T07:47:43.752Z,896
2017-02-19T07:48:24.260Z,888
2017-02-19T07:49:04.748Z,884
2017-02-19T07:49:45.247Z,884
2017-02-19T07:50:25.732Z,908
2017-02-19T07:51:06.224Z,928
2017-02-19T07:51:46.720Z,944
2017-02-19T07:52:27.221Z,932
2017-02-19T07:53:07.707Z,904
2017-02-19T07:53:48.215Z,896
2017-02-19T07:54:28.711Z,936
2017-02-19T07:55:09.213Z,1008
2017-02-19T07:55:49.698Z,1052
2017-02-19T07:56:30.214Z,1072
2017-02-19T07:57:10.694Z,1092
2017-02-19T07:57:51.184Z,1092
2017-02-19T07:58:31.682Z,1084
2017-02-19T07:59:12.172Z,1080
2017-02-19T07:59:52.664Z,1056
2017-02-19T08:00:33.167Z,1012
2017-02-19T08:01:13.656Z,956
2017-02-19T08:01:54.150Z,896
2017-02-19T08:02:34.655Z,828
2017-02-19T08:03:15.143Z,764
2017-02-19T08:03:55.654Z,704
2017-02-19T08:04:36.140Z,668
2017-02-19T08:05:16.635Z,648
2017-02-19T08:05:57.150Z,648
2017-02-19T08:06:37.644Z,652
2017-02-19T08:07:18.140Z,660
2017-02-19T08:07:58.647Z,656
2017-02-19T08:08:39.147Z,632
2017-02-19T08:09:19.645Z,620
2017-02-19T08:10:00.130Z,620
2017-02-19T08:10:40.621Z,624
2017-02-19T08:11:21.117Z,620
2017-02-19T08:12:01.607Z,624
2017-02-19T08:12:42.097Z,616
2017-02-19T08:13:22.593Z,628
2017-02-19T08:14:03.093Z,636
2017-02-19T08:14:43.592Z,632
2017-02-19T08:15:24.089Z,604
2017-02-19T08:16:04.579Z,544
2017-02-19T08:16:45.085Z,496
2017-02-19T08:17:25.587Z,464
2017-02-19T08:18:06.087Z,484
2017-02-19T08:18:46.586Z,552
2017-02-19T08:19:27.087Z,560
2017-02-19T08:20:07.579Z,564
2017-02-19T08:20:48.087Z,568
2017-02-19T08:21:28.590Z,560
2017-02-19T08:22:09.094Z,560
2017-02-19T08:22:49.575Z,568
2017-02-19T08:23:30.090Z,584
2017-02-19T08:24:10.610Z,580
2017-02-19T08:24:51.100Z,564
2017-02-19T08:25:31.595Z,544
2017-02-19T08:26:12.089Z,520
2017-02-19T08:26:52.582Z,528
2017-02-19T08:27:33.084Z,532
2017-02-19T08:28:13.567Z,536
2017-02-19T08:28:54.048Z,552
2017-02-19T08:29:34.542Z,556
2017-02-19T08:30:15.041Z,528
2017-02-19T08:30:55.630Z,536
2017-02-19T08:31:36.132Z,512
2017-02-19T08:32:16.609Z,440
2017-02-19T08:32:57.124Z,440
2017-02-19T08:33:37.625Z,484
2017-02-19T08:34:18.114Z,480
2017-02-19T08:34:58.627Z,424
2017-02-19T08:35:39.105Z,384
2017-02-19T08:36:19.592Z,384
2017-02-19T08:37:00.078Z,400
2017-02-19T08:37:40.598Z,408
2017-02-19T08:38:21.079Z,436
2017-02-19T08:39:01.589Z,472
2017-02-19T08:39:42.075Z,456
2017-02-19T08:40:22.567Z,428
2017-02-19T08:41:03.074Z,416
2017-02-19T08:41:43.555Z,432
2017-02-19T08:42:24.071Z,468
2017-02-19T08:43:04.564Z,492
2017-02-19T08:43:45.070Z,540
2017-02-19T08:44:25.548Z,568
2017-02-19T08:45:06.038Z,576
2017-02-19T08:45:46.519Z,600
2017-02-19T08:46:27.017Z,624
2017-02-19T08:47:07.513Z,620
2017-02-19T08:47:47.987Z,580
2017-02-19T08:48:28.512Z,524
2017-02-19T08:49:09.006Z,492
2017-02-19T08:49:49.504Z,476
2017-02-19T08:50:30.001Z,508
2017-02-19T08:51:10.478Z,592
2017-02-19T08:51:50.967Z,548
2017-02-19T08:52:31.458Z,476
2017-02-19T08:53:11.955Z,472
2017-02-19T08:53:52.453Z,388
2017-02-19T08:54:32.948Z,396
2017-02-19T08:55:13.439Z,436
2017-02-19T08:55:53.930Z,472
2017-02-19T08:56:34.415Z,460
2017-02-19T08:57:14.925Z,400
2017-02-19T08:57:55.411Z,368
2017-02-19T08:58:35.917Z,368
2017-02-19T08:59:16.405Z,376
2017-02-19T08:59:56.896Z,424
2017-02-19T09:00:37.398Z,460
2017-02-19T09:01:17.887Z,416
2017-02-19T09:01:58.372Z,432
2017-02-19T09:02:38.873Z,436
2017-02-19T09:03:19.371Z,396
2017-02-19T09:03:59.853Z,392
2017-02-19T09:04:40.345Z,392
2017-02-19T09:05:20.840Z,380
2017-02-19T09:06:01.330Z,360
2017-02-19T09:06:41.820Z,364
2017-02-19T09:07:22.304Z,380
2017-02-19T09:08:02.807Z,404
2017-02-19T09:08:43.303Z,412
2017-02-19T09:09:23.807Z,432
2017-02-19T09:10:04.293Z,452
2017-02-19T09:10:44.790Z,472
2017-02-19T09:11:25.284Z,500
2017-02-19T09:12:05.767Z,544
2017-02-19T09:12:46.260Z,600
2017-02-19T09:13:26.744Z,636
2017-02-19T09:14:07.249Z,640
2017-02-19T09:14:47.738Z,580
2017-02-19T09:15:28.246Z,552
2017-02-19T09:16:08.737Z,524
2017-02-19T09:16:49.230Z,560
2017-02-19T09:17:29.731Z,540
2017-02-19T09:18:10.212Z,560
2017-02-19T09:18:50.721Z,548
2017-02-19T09:19:31.196Z,528
2017-02-19T09:20:11.712Z,532
2017-02-19T09:20:52.183Z,500
2017-02-19T09:21:32.672Z,496
2017-02-19T09:22:13.178Z,520
2017-02-19T09:22:53.668Z,484
2017-02-19T09:23:34.212Z,440
2017-02-19T09:24:14.721Z,416
2017-02-19T09:24:55.209Z,436
2017-02-19T09:25:35.692Z,540
2017-02-19T09:26:16.181Z,560
2017-02-19T09:26:56.672Z,528
2017-02-19T09:27:37.165Z,464
2017-02-19T09:28:17.657Z,424
2017-02-19T09:28:58.142Z,420
2017-02-19T09:29:38.625Z,480
2017-02-19T09:30:19.131Z,556
2017-02-19T09:30:59.632Z,692
2017-02-19T09:31:40.125Z,720
2017-02-19T09:32:20.618Z,628
2017-02-19T09:33:01.105Z,624
2017-02-19T09:33:41.611Z,596
2017-02-19T09:34:22.088Z,588
2017-02-19T09:35:02.607Z,604
2017-02-19T09:35:43.090Z,604
2017-02-19T09:36:23.607Z,616
2017-02-19T09:37:04.092Z,604
2017-02-19T09:37:44.587Z,636
2017-02-19T09:38:25.098Z,596
2017-02-19T09:39:05.602Z,556
2017-02-19T09:39:46.064Z,552
2017-02-19T09:40:26.573Z,544
2017-02-19T09:41:07.054Z,548
2017-02-19T09:41:47.551Z,468
2017-02-19T09:42:28.035Z,424
2017-02-19T09:43:08.551Z,456
2017-02-19T09:43:49.044Z,500
2017-02-19T09:44:29.517Z,484
2017-02-19T09:45:10.013Z,464
2017-02-19T09:45:51.415Z,512